createdAt,value
2022-11-04T00:00:13.500Z,100240.66
2022-11-04T00:02:41.759Z,100226.75
2022-11-04T00:05:10.443Z,100222.31
2022-11-04T00:07:57.797Z,100209.78
2022-11-04T00:10:45.429Z,100208.72
2022-11-04T00:13:13.029Z,100198.25
2022-11-04T00:15:58.988Z,100196.84
2022-11-04T00:18:26.594Z,100185.88
2022-11-04T00:21:15.986Z,100172.78
2022-11-04T00:24:02.385Z,100171.59
2022-11-04T00:26:49.307Z,100157.22
2022-11-04T00:29:17.722Z,100153.34
2022-11-04T00:32:04.343Z,100152.78
2022-11-04T00:34:32.418Z,100145.59
2022-11-04T00:37:03.015Z,100144.44
2022-11-04T00:39:30.642Z,100138.22
2022-11-04T00:41:58.274Z,100134.47
2022-11-04T00:44:25.916Z,100130.38
2022-11-04T00:46:53.555Z,100121.69
2022-11-04T00:49:21.119Z,100111.34
2022-11-04T00:51:48.760Z,100103.97
2022-11-04T00:54:16.613Z,100100.91
2022-11-04T00:56:44.648Z,100104.50
2022-11-04T00:59:14.544Z,100099.03
2022-11-04T01:01:42.546Z,100092.03
2022-11-04T01:04:10.146Z,100092.03
2022-11-04T01:06:38.086Z,100085.75
2022-11-04T01:09:08.679Z,100071.13
2022-11-04T01:11:36.732Z,100065.91
2022-11-04T01:14:05.257Z,100067.13
2022-11-04T01:16:33.408Z,100059.47
2022-11-04T01:19:01.405Z,100059.09
2022-11-04T01:21:29.374Z,100055.84
2022-11-04T01:23:57.431Z,100051.78
2022-11-04T01:26:26.470Z,100044.78
2022-11-04T01:28:55.762Z,100029.19
2022-11-04T01:31:26.067Z,100025.66
2022-11-04T01:33:54.963Z,100025.88
2022-11-04T01:36:24.188Z,100024.19
2022-11-04T01:38:52.488Z,100020.59
2022-11-04T01:41:23.564Z,100018.63
2022-11-04T01:44:03.349Z,100017.94
2022-11-04T01:46:44.368Z,100011.31
2022-11-04T01:49:43.316Z,100004.44
2022-11-04T01:52:17.179Z,99996.38
2022-11-04T01:54:48.434Z,99991.38
2022-11-04T01:57:21.344Z,99988.59
2022-11-04T01:59:48.922Z,99981.84
2022-11-04T02:02:16.749Z,99977.41
2022-11-04T02:04:45.124Z,99970.16
2022-11-04T02:07:13.539Z,99968.41
2022-11-04T02:09:42.480Z,99952.94
2022-11-04T02:12:28.209Z,99944.69
2022-11-04T02:14:57.546Z,99931.81
2022-11-04T02:17:46.846Z,99917.00
2022-11-04T02:20:29.398Z,99908.56
2022-11-04T02:23:45.960Z,99897.69
2022-11-04T02:26:58.257Z,99901.59
2022-11-04T02:29:38.487Z,99895.50
2022-11-04T02:32:18.161Z,99887.41
2022-11-04T02:35:10.910Z,99876.91
2022-11-04T02:40:47.852Z,99866.47
2022-11-04T02:43:36.467Z,99865.56
2022-11-04T02:46:17.086Z,99862.66
2022-11-04T02:49:01.351Z,99852.47
2022-11-04T02:51:34.529Z,99840.53
2022-11-04T02:54:11.445Z,99835.72
2022-11-04T02:56:45.530Z,99823.28
2022-11-04T02:59:19.923Z,99827.31
2022-11-04T03:01:52.811Z,99828.34
2022-11-04T03:04:30.166Z,99812.84
2022-11-04T03:07:01.330Z,99803.22
2022-11-04T03:09:31.159Z,99783.78
2022-11-04T03:12:06.981Z,99782.41
2022-11-04T03:14:43.435Z,99773.66
2022-11-04T03:17:20.648Z,99768.75
2022-11-04T03:19:55.122Z,99768.75
2022-11-04T03:22:29.524Z,99753.50
2022-11-04T03:24:57.896Z,99740.63
2022-11-04T03:27:33.545Z,99744.56
2022-11-04T03:30:04.062Z,99741.47
2022-11-04T03:32:39.374Z,99750.56
2022-11-04T03:35:08.633Z,99739.00
2022-11-04T03:37:36.752Z,99746.97
2022-11-04T03:40:05.040Z,99752.25
2022-11-04T03:42:35.240Z,99745.94
2022-11-04T03:45:03.348Z,99743.19
2022-11-04T03:47:31.919Z,99734.25
2022-11-04T03:50:11.177Z,99724.16
2022-11-04T03:52:39.582Z,99724.69
2022-11-04T03:55:10.380Z,99722.53
2022-11-04T03:58:15.609Z,99723.19
2022-11-04T04:00:52.284Z,99730.16
2022-11-04T04:03:31.966Z,99718.53
2022-11-04T04:06:16.038Z,99727.00
2022-11-04T04:08:50.431Z,99722.72
2022-11-04T04:11:21.087Z,99720.53
2022-11-04T04:13:58.422Z,99730.50
2022-11-04T04:16:32.571Z,99732.63
2022-11-04T04:19:13.507Z,99720.75
2022-11-04T04:21:54.449Z,99711.44
2022-11-04T04:24:45.352Z,99717.56
2022-11-04T04:27:32.452Z,99714.41
2022-11-04T04:30:05.801Z,99723.69
2022-11-04T04:32:39.524Z,99710.94
2022-11-04T04:35:28.079Z,99703.34
2022-11-04T04:38:21.057Z,99693.25
2022-11-04T04:41:21.090Z,99699.72
2022-11-04T04:44:07.110Z,99697.91
2022-11-04T04:46:37.525Z,99700.03
2022-11-04T04:49:09.579Z,99694.44
2022-11-04T04:51:42.780Z,99679.88
2022-11-04T04:54:10.486Z,99674.75
2022-11-04T04:56:38.969Z,99677.88
2022-11-04T04:59:06.721Z,99694.25
2022-11-04T05:01:34.445Z,99676.25
2022-11-04T05:04:02.697Z,99673.09
2022-11-04T05:06:30.298Z,99675.72
2022-11-04T05:08:58.300Z,99680.38
2022-11-04T05:11:27.404Z,99681.53
2022-11-04T05:13:55.578Z,99669.59
2022-11-04T05:16:23.757Z,99665.63
2022-11-04T05:18:54.028Z,99668.97
2022-11-04T05:21:21.791Z,99671.78
2022-11-04T05:23:49.702Z,99673.59
2022-11-04T05:26:18.307Z,99665.97
2022-11-04T05:28:45.955Z,99655.09
2022-11-04T05:31:13.672Z,99646.47
2022-11-04T05:33:41.342Z,99661.66
2022-11-04T05:36:11.221Z,99660.38
2022-11-04T05:38:39.393Z,99654.94
2022-11-04T05:41:08.611Z,99647.50
2022-11-04T05:43:36.436Z,99644.50
2022-11-04T05:46:04.506Z,99642.38
2022-11-04T05:48:37.708Z,99644.34
2022-11-04T05:51:08.291Z,99632.63
2022-11-04T05:53:35.834Z,99636.41
2022-11-04T05:56:03.763Z,99640.03
2022-11-04T05:58:31.426Z,99642.38
2022-11-04T06:01:32.758Z,99641.88
2022-11-04T06:04:01.053Z,99643.19
2022-11-04T06:06:31.634Z,99645.34
2022-11-04T06:09:00.535Z,99640.56
2022-11-04T06:11:30.342Z,99636.41
2022-11-04T06:13:58.725Z,99642.19
2022-11-04T06:16:26.750Z,99649.78
2022-11-04T06:18:54.565Z,99652.44
2022-11-04T06:21:28.538Z,99653.94
2022-11-04T06:23:57.694Z,99663.97
2022-11-04T06:26:33.053Z,99662.63
2022-11-04T06:29:00.605Z,99665.25
2022-11-04T06:31:28.185Z,99655.31
2022-11-04T06:33:55.942Z,99643.75
2022-11-04T06:36:23.954Z,99655.25
2022-11-04T06:38:52.450Z,99659.50
2022-11-04T06:41:20.550Z,99676.69
2022-11-04T06:43:48.159Z,99675.22
2022-11-04T06:46:36.200Z,99699.38
2022-11-04T06:49:06.410Z,99712.63
2022-11-04T06:51:34.867Z,99711.66
2022-11-04T06:54:02.502Z,99717.91
2022-11-04T06:56:30.420Z,99718.59
2022-11-04T06:58:58.524Z,99728.41
2022-11-04T07:01:30.622Z,99742.38
2022-11-04T07:04:00.055Z,99746.91
2022-11-04T07:06:31.687Z,99756.56
2022-11-04T07:09:01.491Z,99746.75
2022-11-04T07:11:32.279Z,99742.59
2022-11-04T07:13:59.846Z,99750.59
2022-11-04T07:16:27.517Z,99748.09
2022-11-04T07:18:55.637Z,99754.56
2022-11-04T07:21:23.799Z,99761.56
2022-11-04T07:23:51.607Z,99768.38
2022-11-04T07:26:20.273Z,99781.03
2022-11-04T07:28:47.830Z,99818.00
2022-11-04T07:31:16.228Z,99821.03
2022-11-04T07:33:44.282Z,99830.44
2022-11-04T07:36:13.423Z,99826.72
2022-11-04T07:38:40.889Z,99828.25
2022-11-04T07:41:08.581Z,99835.97
2022-11-04T07:43:36.564Z,99840.00
2022-11-04T07:46:07.472Z,99831.16
2022-11-04T07:48:36.752Z,99796.69
2022-11-04T07:51:07.870Z,99803.91
2022-11-04T07:53:35.960Z,99804.44
2022-11-04T07:56:08.638Z,99807.75
2022-11-04T07:58:36.155Z,99786.56
2022-11-04T08:01:08.468Z,99742.88
2022-11-04T08:03:36.904Z,99712.72
2022-11-04T08:06:06.720Z,99694.09
2022-11-04T08:08:35.214Z,99703.34
2022-11-04T08:11:15.874Z,99714.72
2022-11-04T08:13:46.418Z,99731.94
2022-11-04T08:16:20.513Z,99709.34
2022-11-04T08:18:51.495Z,99711.59
2022-11-04T08:21:20.869Z,99728.91
2022-11-04T08:23:48.512Z,99720.25
2022-11-04T08:26:18.472Z,99721.19
2022-11-04T08:28:46.340Z,99739.00
2022-11-04T08:31:13.786Z,99753.53
2022-11-04T08:33:42.677Z,99746.53
2022-11-04T08:36:18.289Z,99753.53
2022-11-04T08:38:46.724Z,99745.09
2022-11-04T08:41:16.807Z,99749.34
2022-11-04T08:43:44.712Z,99768.63
2022-11-04T08:46:14.155Z,99758.84
2022-11-04T08:48:43.077Z,99763.00
2022-11-04T08:51:23.018Z,99755.44
2022-11-04T08:53:50.675Z,99745.66
2022-11-04T08:56:21.799Z,99744.84
2022-11-04T08:58:50.275Z,99747.31
2022-11-04T09:01:19.248Z,99745.25
2022-11-04T09:03:47.441Z,99745.44
2022-11-04T09:06:19.662Z,99741.69
2022-11-04T09:08:47.738Z,99751.59
2022-11-04T09:11:16.480Z,99758.31
2022-11-04T09:13:44.447Z,99753.84
2022-11-04T09:16:14.200Z,99745.22
2022-11-04T09:18:42.206Z,99741.78
2022-11-04T09:21:11.085Z,99748.84
2022-11-04T09:23:39.103Z,99738.34
2022-11-04T09:26:15.433Z,99735.69
2022-11-04T09:28:43.931Z,99724.81
2022-11-04T09:31:14.640Z,99738.47
2022-11-04T09:33:42.994Z,99732.72
2022-11-04T09:36:12.261Z,99735.59
2022-11-04T09:38:42.092Z,99742.81
2022-11-04T09:41:27.649Z,99743.00
2022-11-04T09:44:28.683Z,99734.63
2022-11-04T09:47:00.682Z,99734.81
2022-11-04T09:49:37.151Z,99731.72
2022-11-04T09:52:39.248Z,99745.81
2022-11-04T09:55:19.631Z,99747.56
2022-11-04T09:57:56.434Z,99742.13
2022-11-04T10:00:24.881Z,99751.22
2022-11-04T10:03:40.532Z,99754.06
2022-11-04T10:06:19.940Z,99747.41
2022-11-04T10:08:57.313Z,99759.25
2022-11-04T10:11:45.524Z,99765.19
2022-11-04T10:14:51.187Z,99760.09
2022-11-04T10:17:52.100Z,99761.13
2022-11-04T10:20:26.124Z,99753.50
2022-11-04T10:23:08.765Z,99759.28
2022-11-04T10:25:39.412Z,99754.72
2022-11-04T10:28:13.058Z,99762.22
2022-11-04T10:30:42.865Z,99754.22
2022-11-04T10:33:22.851Z,99750.47
2022-11-04T10:35:57.576Z,99754.09
2022-11-04T10:38:30.977Z,99757.41
2022-11-04T10:41:01.690Z,99764.97
2022-11-04T10:43:37.722Z,99760.34
2022-11-04T10:46:20.752Z,99754.53
2022-11-04T10:48:56.422Z,99751.53
2022-11-04T10:51:24.801Z,99755.56
2022-11-04T10:53:57.102Z,99760.72
2022-11-04T10:56:36.221Z,99768.09
2022-11-04T10:59:39.404Z,99762.53
2022-11-04T11:02:10.229Z,99764.06
2022-11-04T11:04:47.863Z,99764.41
2022-11-04T11:07:22.932Z,99759.88
2022-11-04T11:09:57.208Z,99757.56
2022-11-04T11:12:51.634Z,99759.47
2022-11-04T11:15:30.196Z,99760.06
2022-11-04T11:18:08.516Z,99754.59
2022-11-04T11:20:38.128Z,99748.88
2022-11-04T11:23:10.135Z,99745.28
2022-11-04T11:25:45.268Z,99736.97
2022-11-04T11:28:22.633Z,99751.59
2022-11-04T11:30:56.094Z,99726.44
2022-11-04T11:33:30.027Z,99726.28
2022-11-04T11:36:11.966Z,99727.75
2022-11-04T11:38:53.051Z,99723.63
2022-11-04T11:41:25.584Z,99716.31
2022-11-04T11:43:56.092Z,99715.28
2022-11-04T11:46:26.398Z,99719.47
2022-11-04T11:49:01.317Z,99721.34
2022-11-04T11:51:33.563Z,99713.94
2022-11-04T11:54:33.710Z,99721.50
2022-11-04T11:57:25.342Z,99722.13
2022-11-04T12:02:55.951Z,99720.09
2022-11-04T12:09:18.383Z,99723.88
2022-11-04T12:12:22.627Z,99723.41
2022-11-04T12:15:06.802Z,99720.06
2022-11-04T12:18:09.785Z,99712.91
2022-11-04T12:20:52.038Z,99706.59
2022-11-04T12:23:22.192Z,99715.53
2022-11-04T12:26:08.030Z,99711.41
2022-11-04T12:29:00.628Z,99712.25
2022-11-04T12:31:37.522Z,99730.53
2022-11-04T12:34:09.210Z,99731.34
2022-11-04T12:36:44.204Z,99732.09
2022-11-04T12:39:39.497Z,99722.19
2022-11-04T12:42:21.459Z,99730.09
2022-11-04T12:45:16.559Z,99725.78
2022-11-04T12:47:46.330Z,99725.44
2022-11-04T12:50:36.145Z,99726.69
2022-11-04T12:53:27.199Z,99729.13
2022-11-04T12:56:10.332Z,99730.44
2022-11-04T12:59:11.428Z,99729.53
2022-11-04T13:01:45.180Z,99733.13
2022-11-04T13:04:47.374Z,99737.06
2022-11-04T13:07:29.188Z,99724.53
2022-11-04T13:10:00.553Z,99727.03
2022-11-04T13:12:37.094Z,99728.28
2022-11-04T13:15:16.552Z,99728.59
2022-11-04T13:17:46.599Z,99716.84
2022-11-04T13:20:23.701Z,99716.75
2022-11-04T13:22:56.673Z,99720.66
2022-11-04T13:25:53.038Z,99718.16
2022-11-04T13:28:22.184Z,99714.75
2022-11-04T13:30:58.466Z,99709.44
2022-11-04T13:33:46.828Z,99699.06
2022-11-04T13:36:25.702Z,99695.00
2022-11-04T13:38:57.307Z,99686.69
2022-11-04T13:41:49.589Z,99681.19
2022-11-04T13:44:36.225Z,99679.22
2022-11-04T13:47:17.884Z,99678.00
2022-11-04T13:49:55.555Z,99679.88
2022-11-04T13:52:28.346Z,99677.41
2022-11-04T13:54:59.793Z,99678.69
2022-11-04T13:57:29.620Z,99675.91
2022-11-04T14:00:15.217Z,99688.31
2022-11-04T14:02:58.188Z,99690.97
2022-11-04T14:05:40.039Z,99693.91
2022-11-04T14:08:11.980Z,99692.03
2022-11-04T14:10:42.480Z,99699.22
2022-11-04T14:13:29.640Z,99693.69
2022-11-04T14:16:17.533Z,99691.97
2022-11-04T14:18:50.598Z,99693.28
2022-11-04T14:21:22.058Z,99688.78
2022-11-04T14:23:56.460Z,99685.41
2022-11-04T14:26:50.325Z,99680.53
2022-11-04T14:29:25.256Z,99674.53
2022-11-04T14:31:56.987Z,99672.47
2022-11-04T14:34:31.111Z,99668.09
2022-11-04T14:37:06.533Z,99670.47
2022-11-04T14:39:40.365Z,99665.84
2022-11-04T14:42:13.541Z,99668.63
2022-11-04T14:44:50.050Z,99661.47
2022-11-04T14:47:29.886Z,99667.69
2022-11-04T14:50:02.695Z,99667.38
2022-11-04T14:52:35.499Z,99662.09
2022-11-04T14:55:03.841Z,99656.19
2022-11-04T14:57:38.221Z,99649.78
2022-11-04T15:00:32.100Z,99658.72
2022-11-04T15:03:02.696Z,99666.94
2022-11-04T15:05:33.502Z,99658.63
2022-11-04T15:08:01.108Z,99657.75
2022-11-04T15:10:29.272Z,99659.53
2022-11-04T15:13:02.330Z,99645.69
2022-11-04T15:15:39.831Z,99651.13
2022-11-04T15:18:15.916Z,99656.41
2022-11-04T15:20:49.996Z,99658.44
2022-11-04T15:23:28.242Z,99655.91
2022-11-04T15:25:57.570Z,99654.88
2022-11-04T15:28:36.330Z,99660.97
2022-11-04T15:31:13.144Z,99656.53
2022-11-04T15:33:46.190Z,99649.09
2022-11-04T15:36:29.786Z,99648.44
2022-11-04T15:39:24.391Z,99634.56
2022-11-04T15:42:16.402Z,99645.69
2022-11-04T15:44:50.750Z,99648.81
2022-11-04T15:47:18.365Z,99645.50
2022-11-04T15:49:47.918Z,99644.69
2022-11-04T15:52:35.634Z,99654.47
2022-11-04T15:55:05.405Z,99656.16
2022-11-04T15:57:38.185Z,99658.13
2022-11-04T16:00:07.770Z,99656.13
2022-11-04T16:02:50.295Z,99656.28
2022-11-04T16:05:27.173Z,99656.28
2022-11-04T16:07:59.482Z,99658.09
2022-11-04T16:10:36.898Z,99657.56
2022-11-04T16:13:23.295Z,99668.63
2022-11-04T16:15:59.254Z,99674.56
2022-11-04T16:18:43.565Z,99674.38
2022-11-04T16:21:23.341Z,99673.88
2022-11-04T16:24:01.273Z,99674.16
2022-11-04T16:26:34.970Z,99671.34
2022-11-04T16:29:07.528Z,99673.44
2022-11-04T16:31:37.234Z,99676.75
2022-11-04T16:34:11.579Z,99681.13
2022-11-04T16:36:39.557Z,99685.59
2022-11-04T16:39:08.951Z,99691.88
2022-11-04T16:41:40.788Z,99687.09
2022-11-04T16:44:18.966Z,99697.28
2022-11-04T16:46:46.609Z,99692.81
2022-11-04T16:49:19.937Z,99695.50
2022-11-04T16:52:09.853Z,99706.66
2022-11-04T16:54:37.780Z,99699.03
2022-11-04T16:57:09.199Z,99704.22
2022-11-04T16:59:36.914Z,99710.50
2022-11-04T17:02:21.127Z,99711.41
2022-11-04T17:04:49.321Z,99719.38
2022-11-04T17:07:17.541Z,99725.09
2022-11-04T17:09:45.621Z,99726.84
2022-11-04T17:12:14.123Z,99724.50
2022-11-04T17:14:41.768Z,99723.53
2022-11-04T17:17:11.150Z,99732.63
2022-11-04T17:19:39.219Z,99744.00
2022-11-04T17:22:08.509Z,99748.94
2022-11-04T17:24:36.137Z,99755.63
2022-11-04T17:27:04.643Z,99756.78
2022-11-04T17:29:37.376Z,99768.41
2022-11-04T17:32:05.097Z,99769.41
2022-11-04T17:34:33.010Z,99784.13
2022-11-04T17:37:01.654Z,99775.31
2022-11-04T17:39:29.601Z,99786.75
2022-11-04T17:42:16.656Z,99794.41
2022-11-04T17:44:45.101Z,99800.16
2022-11-04T17:47:13.274Z,99804.78
2022-11-04T17:49:41.564Z,99818.63
2022-11-04T17:52:09.631Z,99814.38
2022-11-04T17:54:37.258Z,99822.91
2022-11-04T17:57:05.125Z,99815.44
2022-11-04T17:59:36.682Z,99813.25
2022-11-04T18:02:04.561Z,99824.09
2022-11-04T18:04:32.669Z,99832.50
2022-11-04T18:07:03.053Z,99839.31
2022-11-04T18:09:33.762Z,99842.09
2022-11-04T18:12:19.720Z,99840.16
2022-11-04T18:14:47.263Z,99842.09
2022-11-04T18:17:14.763Z,99844.31
2022-11-04T18:19:42.990Z,99847.66
2022-11-04T18:22:11.008Z,99851.13
2022-11-04T18:24:38.788Z,99854.44
2022-11-04T18:27:06.345Z,99856.66
2022-11-04T18:29:34.565Z,99856.22
2022-11-04T18:32:02.154Z,99858.44
2022-11-04T18:34:29.985Z,99863.69
2022-11-04T18:36:58.236Z,99870.34
2022-11-04T18:39:26.214Z,99875.09
2022-11-04T18:41:54.401Z,99877.72
2022-11-04T18:44:22.656Z,99879.78
2022-11-04T18:46:50.486Z,99878.53
2022-11-04T18:49:18.480Z,99884.03
2022-11-04T18:51:46.417Z,99885.31
2022-11-04T18:54:15.127Z,99888.78
2022-11-04T18:56:42.955Z,99892.91
2022-11-04T18:59:13.024Z,99890.56
2022-11-04T19:01:42.198Z,99895.81
2022-11-04T19:04:10.415Z,99900.50
2022-11-04T19:06:42.604Z,99898.94
2022-11-04T19:09:45.561Z,99894.25
2022-11-04T19:12:19.347Z,99901.44
2022-11-04T19:14:47.208Z,99901.94
2022-11-04T19:17:14.996Z,99915.06
2022-11-04T19:19:43.092Z,99912.81
2022-11-04T19:22:11.811Z,99914.88
2022-11-04T19:24:39.708Z,99907.16
2022-11-04T19:27:07.504Z,99905.28
2022-11-04T19:29:35.274Z,99915.59
2022-11-04T19:32:03.581Z,99908.28
2022-11-04T19:34:31.293Z,99910.53
2022-11-04T19:36:58.855Z,99918.16
2022-11-04T19:39:26.406Z,99917.84
2022-11-04T19:42:12.629Z,99922.13
2022-11-04T19:44:41.343Z,99929.91
2022-11-04T19:47:09.811Z,99937.06
2022-11-04T19:49:37.519Z,99936.81
2022-11-04T19:52:05.164Z,99937.59
2022-11-04T19:54:33.135Z,99939.28
2022-11-04T19:57:01.246Z,99949.78
2022-11-04T19:59:29.161Z,99957.50
2022-11-04T20:01:56.900Z,99966.84
2022-11-04T20:04:24.879Z,99964.59
2022-11-04T20:06:52.503Z,99960.75
2022-11-04T20:09:22.344Z,99960.94
2022-11-04T20:12:08.980Z,99967.78
2022-11-04T20:14:36.925Z,99968.09
2022-11-04T20:17:06.770Z,99978.44
2022-11-04T20:19:35.368Z,99970.75
2022-11-04T20:22:03.785Z,99961.06
2022-11-04T20:24:31.351Z,99961.59
2022-11-04T20:26:59.413Z,99967.22
2022-11-04T20:29:27.089Z,99965.75
2022-11-04T20:31:54.627Z,99967.94
2022-11-04T20:34:22.556Z,99968.69
2022-11-04T20:36:51.130Z,99964.53
2022-11-04T20:39:20.384Z,99962.31
2022-11-04T20:41:48.300Z,99972.22
2022-11-04T20:44:16.744Z,99973.56
2022-11-04T20:46:45.073Z,99984.34
2022-11-04T20:49:13.483Z,99979.63
2022-11-04T20:51:50.222Z,99982.53
2022-11-04T20:54:20.950Z,99977.16
2022-11-04T20:56:48.463Z,99988.50
2022-11-04T20:59:18.336Z,99986.44
2022-11-04T21:01:47.510Z,99996.22
2022-11-04T21:04:18.975Z,100001.00
2022-11-04T21:06:48.654Z,100012.13
2022-11-04T21:09:19.384Z,100013.69
2022-11-04T21:11:47.338Z,100015.78
2022-11-04T21:14:16.660Z,100019.16
2022-11-04T21:16:44.760Z,100013.44
2022-11-04T21:19:13.413Z,100017.63
2022-11-04T21:21:42.402Z,100015.47
2022-11-04T21:24:13.584Z,100015.59
2022-11-04T21:26:41.830Z,100015.78
2022-11-04T21:29:14.181Z,100017.50
2022-11-04T21:31:42.091Z,100022.97
2022-11-04T21:34:10.642Z,100027.75
2022-11-04T21:36:39.308Z,100038.59
2022-11-04T21:39:07.558Z,100056.38
2022-11-04T21:41:37.425Z,100058.41
2022-11-04T21:44:11.275Z,100061.19
2022-11-04T21:46:38.691Z,100055.22
2022-11-04T21:49:06.338Z,100049.50
2022-11-04T21:51:34.645Z,100049.97
2022-11-04T21:54:06.376Z,100060.00
2022-11-04T21:56:35.227Z,100062.00
2022-11-04T21:59:04.856Z,100057.28
2022-11-04T22:01:33.288Z,100056.56
2022-11-04T22:04:02.192Z,100058.81
2022-11-04T22:06:35.283Z,100058.47
2022-11-04T22:09:09.366Z,100064.09
2022-11-04T22:11:39.461Z,100059.91
2022-11-04T22:14:08.494Z,100058.16
2022-11-04T22:16:38.797Z,100066.38
2022-11-04T22:19:10.240Z,100054.47
2022-11-04T22:21:40.463Z,100054.91
2022-11-04T22:24:18.206Z,100052.56
2022-11-04T22:26:47.663Z,100063.63
2022-11-04T22:29:15.880Z,100063.06
2022-11-04T22:31:44.265Z,100054.47
2022-11-04T22:34:11.912Z,100050.66
2022-11-04T22:36:39.894Z,100043.63
2022-11-04T22:39:11.985Z,100041.72
2022-11-04T22:41:43.805Z,100050.06
2022-11-04T22:44:11.743Z,100057.56
2022-11-04T22:46:39.268Z,100061.75
2022-11-04T22:49:07.195Z,100064.84
2022-11-04T22:51:35.502Z,100058.53
2022-11-04T22:54:08.174Z,100067.00
2022-11-04T22:56:36.886Z,100063.53
2022-11-04T22:59:04.628Z,100067.72
2022-11-04T23:01:33.930Z,100083.31
2022-11-04T23:04:02.791Z,100088.09
2022-11-04T23:06:31.224Z,100088.94
2022-11-04T23:09:00.688Z,100086.19
2022-11-04T23:11:49.393Z,100085.78
2022-11-04T23:14:39.348Z,100083.28
2022-11-04T23:17:39.807Z,100089.47
2022-11-04T23:20:14.749Z,100093.03
2022-11-04T23:23:00.923Z,100099.50
2022-11-04T23:25:28.607Z,100109.16
2022-11-04T23:28:15.770Z,100105.94
2022-11-04T23:30:46.918Z,100097.25
2022-11-04T23:33:15.994Z,100097.13
2022-11-04T23:36:08.217Z,100106.25
2022-11-04T23:38:35.818Z,100109.16
2022-11-04T23:41:25.274Z,100107.50
2022-11-04T23:43:53.549Z,100117.38
2022-11-04T23:46:42.942Z,100120.56
2022-11-04T23:49:14.783Z,100123.19
2022-11-04T23:52:01.541Z,100126.53
2022-11-04T23:54:48.696Z,100130.19
2022-11-04T23:57:37.454Z,100128.38
